createdAt,value
2023-05-05T00:00:12.214Z,34.38
2023-05-05T00:02:39.232Z,34.37
2023-05-05T00:05:06.440Z,34.44
2023-05-05T00:07:32.952Z,34.49
2023-05-05T00:09:59.583Z,34.62
2023-05-05T00:12:25.889Z,34.54
2023-05-05T00:14:52.533Z,34.72
2023-05-05T00:17:19.187Z,34.69
2023-05-05T00:19:45.521Z,34.96
2023-05-05T00:22:11.903Z,35.10
2023-05-05T00:24:38.451Z,35.14
2023-05-05T00:27:04.806Z,35.18
2023-05-05T00:29:31.348Z,35.25
2023-05-05T00:31:58.017Z,35.24
2023-05-05T00:34:24.493Z,35.46
2023-05-05T00:36:50.869Z,35.44
2023-05-05T00:39:17.513Z,35.57
2023-05-05T00:41:43.909Z,35.63
2023-05-05T00:44:10.491Z,35.47
2023-05-05T00:46:37.038Z,35.68
2023-05-05T00:49:03.582Z,35.55
2023-05-05T00:51:30.002Z,35.54
2023-05-05T00:53:57.010Z,35.57
2023-05-05T00:56:27.501Z,35.82
2023-05-05T00:58:54.126Z,35.70
2023-05-05T01:01:20.798Z,35.80
2023-05-05T01:03:47.493Z,35.62
2023-05-05T01:06:29.558Z,36.53
2023-05-05T01:09:27.394Z,36.26
2023-05-05T01:12:14.565Z,36.11
2023-05-05T01:14:46.459Z,36.01
2023-05-05T01:17:25.599Z,36.35
2023-05-05T01:20:10.871Z,36.59
2023-05-05T01:22:48.833Z,36.78
2023-05-05T01:25:40.825Z,36.61
2023-05-05T01:28:30.375Z,36.77
2023-05-05T01:31:04.018Z,36.75
2023-05-05T01:33:36.833Z,37.23
2023-05-05T01:36:10.397Z,36.76
2023-05-05T01:38:41.250Z,36.55
2023-05-05T01:41:15.214Z,36.98
2023-05-05T01:43:45.725Z,36.58
2023-05-05T01:46:14.147Z,36.50
2023-05-05T01:48:42.337Z,36.11
2023-05-05T01:51:10.356Z,36.15
2023-05-05T01:53:38.574Z,36.38
2023-05-05T01:56:06.293Z,36.61
2023-05-05T01:58:33.866Z,36.50
2023-05-05T02:01:01.293Z,37.02
2023-05-05T02:03:29.856Z,37.17
2023-05-05T02:05:56.671Z,36.90
2023-05-05T02:08:25.927Z,36.84
2023-05-05T02:10:54.138Z,37.12
2023-05-05T02:13:22.820Z,37.20
2023-05-05T02:15:50.393Z,37.21
2023-05-05T02:18:18.510Z,37.57
2023-05-05T02:20:46.941Z,37.41
2023-05-05T02:23:13.371Z,37.63
2023-05-05T02:25:48.974Z,38.08
2023-05-05T02:28:20.454Z,38.03
2023-05-05T02:31:00.416Z,38.12
2023-05-05T02:33:29.240Z,37.93
2023-05-05T02:35:57.378Z,38.11
2023-05-05T02:38:28.111Z,38.43
2023-05-05T02:40:56.590Z,38.12
2023-05-05T02:43:24.527Z,37.87
2023-05-05T02:45:50.956Z,37.49
2023-05-05T02:48:17.409Z,37.70
2023-05-05T02:50:43.720Z,37.95
2023-05-05T02:53:10.142Z,37.63
2023-05-05T02:55:50.213Z,38.57
2023-05-05T02:58:24.756Z,38.38
2023-05-05T03:01:01.514Z,38.85
2023-05-05T03:03:35.273Z,39.10
2023-05-05T03:06:22.642Z,39.00
2023-05-05T03:08:56.340Z,38.93
2023-05-05T03:11:29.688Z,39.19
2023-05-05T03:14:05.305Z,39.27
2023-05-05T03:16:32.664Z,38.95
2023-05-05T03:19:00.501Z,38.95
2023-05-05T03:21:27.874Z,38.89
2023-05-05T03:23:54.535Z,38.95
2023-05-05T03:26:21.084Z,38.74
2023-05-05T03:28:47.534Z,38.77
2023-05-05T03:31:14.506Z,38.61
2023-05-05T03:33:40.915Z,38.55
2023-05-05T03:36:07.888Z,38.48
2023-05-05T03:38:34.666Z,38.55
2023-05-05T03:41:03.201Z,38.43
2023-05-05T03:43:29.635Z,38.18
2023-05-05T03:45:55.974Z,38.21
2023-05-05T03:48:22.429Z,38.51
2023-05-05T03:50:50.092Z,38.26
2023-05-05T03:53:16.692Z,38.51
2023-05-05T03:55:42.992Z,38.50
2023-05-05T03:58:09.425Z,38.81
2023-05-05T04:00:35.785Z,38.59
2023-05-05T04:03:02.421Z,38.81
2023-05-05T04:05:28.820Z,38.77
2023-05-05T04:07:55.745Z,38.93
2023-05-05T04:10:22.141Z,38.92
2023-05-05T04:12:48.774Z,38.90
2023-05-05T04:15:15.391Z,39.03
2023-05-05T04:17:41.838Z,39.08
2023-05-05T04:20:09.562Z,39.25
2023-05-05T04:22:36.039Z,39.22
2023-05-05T04:25:02.696Z,39.34
2023-05-05T04:27:30.272Z,39.41
2023-05-05T04:29:59.178Z,39.40
2023-05-05T04:32:25.595Z,39.66
2023-05-05T04:34:51.936Z,39.65
2023-05-05T04:37:18.574Z,39.86
2023-05-05T04:39:45.482Z,39.85
2023-05-05T04:42:12.389Z,39.88
2023-05-05T04:44:39.278Z,39.96
2023-05-05T04:47:05.811Z,39.87
2023-05-05T04:49:32.390Z,40.05
2023-05-05T04:51:59.040Z,40.08
2023-05-05T04:54:25.817Z,40.29
2023-05-05T04:56:52.489Z,40.22
2023-05-05T04:59:18.856Z,39.97
2023-05-05T05:01:45.612Z,39.95
2023-05-05T05:04:13.245Z,40.23
2023-05-05T05:06:39.567Z,40.39
2023-05-05T05:09:05.942Z,40.39
2023-05-05T05:11:33.824Z,40.31
2023-05-05T05:14:00.180Z,40.50
2023-05-05T05:16:26.999Z,40.52
2023-05-05T05:18:53.647Z,40.46
2023-05-05T05:21:20.213Z,40.33
2023-05-05T05:23:47.293Z,40.35
2023-05-05T05:26:13.776Z,40.39
2023-05-05T05:28:41.900Z,40.49
2023-05-05T05:31:08.490Z,40.48
2023-05-05T05:33:34.875Z,40.58
2023-05-05T05:36:01.559Z,40.64
2023-05-05T05:38:27.905Z,40.75
2023-05-05T05:40:54.429Z,40.73
2023-05-05T05:43:21.431Z,40.68
2023-05-05T05:45:48.127Z,40.69
2023-05-05T05:48:14.523Z,40.77
2023-05-05T05:50:40.902Z,41.00
2023-05-05T05:53:07.267Z,40.98
2023-05-05T05:55:33.885Z,40.87
2023-05-05T05:58:00.322Z,40.92
2023-05-05T06:00:27.008Z,40.83
2023-05-05T06:02:53.468Z,40.89
2023-05-05T06:05:22.367Z,40.79
2023-05-05T06:07:48.699Z,41.18
2023-05-05T06:10:26.807Z,41.02
2023-05-05T06:12:54.790Z,41.16
2023-05-05T06:15:21.805Z,41.04
2023-05-05T06:17:49.319Z,41.04
2023-05-05T06:20:17.401Z,41.11
2023-05-05T06:22:43.809Z,41.36
2023-05-05T06:25:10.920Z,41.13
2023-05-05T06:27:37.562Z,41.24
2023-05-05T06:30:05.260Z,41.40
2023-05-05T06:32:31.990Z,41.30
2023-05-05T06:34:59.040Z,41.17
2023-05-05T06:37:25.597Z,41.18
2023-05-05T06:39:52.157Z,41.30
2023-05-05T06:42:19.671Z,41.17
2023-05-05T06:44:46.999Z,41.48
2023-05-05T06:47:13.311Z,41.23
2023-05-05T06:49:39.638Z,41.10
2023-05-05T06:52:08.137Z,40.94
2023-05-05T06:54:34.677Z,40.72
2023-05-05T06:57:01.269Z,40.48
2023-05-05T06:59:27.585Z,40.50
2023-05-05T07:01:53.905Z,40.22
2023-05-05T07:04:21.375Z,40.41
2023-05-05T07:06:48.061Z,40.25
2023-05-05T07:09:15.740Z,40.16
2023-05-05T07:11:43.855Z,40.14
2023-05-05T07:14:10.298Z,40.15
2023-05-05T07:16:37.224Z,40.30
2023-05-05T07:19:08.121Z,39.97
2023-05-05T07:21:34.969Z,40.02
2023-05-05T07:24:03.003Z,39.86
2023-05-05T07:26:29.577Z,39.82
2023-05-05T07:28:57.440Z,39.75
2023-05-05T07:31:23.993Z,39.41
2023-05-05T07:33:50.741Z,39.72
2023-05-05T07:36:20.363Z,39.74
2023-05-05T07:38:46.709Z,39.23
2023-05-05T07:41:13.374Z,39.46
2023-05-05T07:43:44.180Z,39.37
2023-05-05T07:46:11.265Z,39.25
2023-05-05T07:48:39.018Z,39.02
2023-05-05T07:51:05.434Z,39.09
2023-05-05T07:53:31.954Z,39.03
2023-05-05T07:55:58.687Z,39.01
2023-05-05T07:58:25.151Z,38.91
2023-05-05T08:00:51.599Z,38.80
2023-05-05T08:03:20.347Z,38.56
2023-05-05T08:05:50.583Z,38.97
2023-05-05T08:08:18.272Z,38.74
2023-05-05T08:10:44.655Z,38.34
2023-05-05T08:13:11.265Z,38.69
2023-05-05T08:15:37.670Z,39.01
2023-05-05T08:18:04.542Z,38.88
2023-05-05T08:20:31.256Z,38.39
2023-05-05T08:22:57.779Z,38.27
2023-05-05T08:25:26.807Z,38.40
2023-05-05T08:27:53.534Z,37.77
2023-05-05T08:30:21.409Z,37.25
2023-05-05T08:32:47.990Z,37.15
2023-05-05T08:35:14.886Z,37.31
2023-05-05T08:37:41.289Z,36.92
2023-05-05T08:40:10.994Z,36.79
2023-05-05T08:42:39.052Z,37.04
2023-05-05T08:45:09.179Z,36.66
2023-05-05T08:47:37.132Z,36.42
2023-05-05T08:50:05.629Z,36.47
2023-05-05T08:52:37.760Z,36.48
2023-05-05T08:55:29.081Z,36.47
2023-05-05T08:57:57.829Z,36.48
2023-05-05T09:00:26.877Z,36.56
2023-05-05T09:02:58.512Z,36.42
2023-05-05T09:05:26.255Z,36.39
2023-05-05T09:07:53.362Z,36.38
2023-05-05T09:10:19.805Z,36.63
2023-05-05T09:12:51.886Z,36.87
2023-05-05T09:15:18.269Z,36.66
2023-05-05T09:17:44.826Z,36.42
2023-05-05T09:20:13.002Z,36.49
2023-05-05T09:22:45.423Z,35.91
2023-05-05T09:25:14.433Z,36.67
2023-05-05T09:27:48.942Z,36.51
2023-05-05T09:30:17.576Z,36.20
2023-05-05T09:32:52.159Z,35.73
2023-05-05T09:35:21.781Z,36.26
2023-05-05T09:37:50.401Z,35.80
2023-05-05T09:40:19.163Z,35.77
2023-05-05T09:42:47.618Z,35.67
2023-05-05T09:45:20.075Z,35.56
2023-05-05T09:47:47.806Z,36.24
2023-05-05T09:50:16.383Z,35.51
2023-05-05T09:52:43.450Z,36.14
2023-05-05T09:55:28.296Z,35.22
2023-05-05T09:57:55.067Z,35.31
2023-05-05T10:00:21.929Z,35.03
2023-05-05T10:02:48.665Z,34.88
2023-05-05T10:05:16.833Z,34.93
2023-05-05T10:07:47.987Z,34.42
2023-05-05T10:10:16.798Z,35.04
2023-05-05T10:12:43.909Z,34.98
2023-05-05T10:15:11.960Z,34.96
2023-05-05T10:18:02.434Z,34.80
2023-05-05T10:20:35.456Z,34.85
2023-05-05T10:23:07.619Z,34.95
2023-05-05T10:25:40.847Z,35.56
2023-05-05T10:28:11.782Z,35.19
2023-05-05T10:30:44.589Z,34.61
2023-05-05T10:35:55.095Z,34.89
2023-05-05T10:38:24.792Z,34.53
2023-05-05T10:40:54.999Z,34.06
2023-05-05T10:43:21.699Z,34.17
2023-05-05T10:45:48.492Z,34.77
2023-05-05T10:48:34.509Z,34.71
2023-05-05T10:51:38.423Z,34.37
2023-05-05T10:54:16.932Z,33.89
2023-05-05T10:56:43.645Z,34.15
2023-05-05T10:59:43.819Z,34.27
2023-05-05T11:02:20.092Z,33.80
2023-05-05T11:05:21.905Z,34.29
2023-05-05T11:07:52.181Z,34.27
2023-05-05T11:10:20.520Z,34.12
2023-05-05T11:13:00.422Z,34.03
2023-05-05T11:15:30.619Z,33.72
2023-05-05T11:18:03.162Z,33.54
2023-05-05T11:20:44.483Z,33.76
2023-05-05T11:23:10.783Z,33.90
2023-05-05T11:25:37.519Z,33.69
2023-05-05T11:28:09.771Z,33.49
2023-05-05T11:30:57.510Z,33.49
2023-05-05T11:33:28.591Z,33.22
2023-05-05T11:35:55.618Z,33.40
2023-05-05T11:38:29.691Z,33.22
2023-05-05T11:41:06.915Z,33.15
2023-05-05T11:43:34.694Z,33.11
2023-05-05T11:46:14.435Z,33.03
2023-05-05T11:48:46.233Z,32.95
2023-05-05T11:51:16.192Z,32.46
2023-05-05T11:53:47.493Z,32.77
2023-05-05T11:56:19.538Z,32.58
2023-05-05T11:58:46.896Z,32.09
2023-05-05T12:01:13.862Z,31.86
2023-05-05T12:03:41.063Z,32.29
2023-05-05T12:06:10.485Z,32.42
2023-05-05T12:08:38.105Z,32.33
2023-05-05T12:11:09.000Z,32.08
2023-05-05T12:13:35.719Z,32.03
2023-05-05T12:16:09.437Z,31.75
2023-05-05T12:18:38.361Z,32.10
2023-05-05T12:21:21.212Z,31.97
2023-05-05T12:23:47.818Z,31.94
2023-05-05T12:26:46.539Z,32.06
2023-05-05T12:29:15.409Z,31.94
2023-05-05T12:31:42.284Z,32.10
2023-05-05T12:34:10.507Z,32.19
2023-05-05T12:36:38.920Z,32.06
2023-05-05T12:39:05.586Z,32.77
2023-05-05T12:41:34.157Z,32.04
2023-05-05T12:44:03.185Z,31.96
2023-05-05T12:46:31.904Z,32.20
2023-05-05T12:49:05.488Z,31.36
2023-05-05T12:51:33.975Z,31.51
2023-05-05T12:54:05.273Z,32.17
2023-05-05T12:56:40.730Z,31.88
2023-05-05T12:59:11.403Z,31.87
2023-05-05T13:01:50.947Z,32.03
2023-05-05T13:04:21.955Z,32.66
2023-05-05T13:06:54.536Z,33.02
2023-05-05T13:09:26.353Z,32.77
2023-05-05T13:11:54.492Z,32.82
2023-05-05T13:14:21.366Z,33.14
2023-05-05T13:16:48.019Z,34.15
2023-05-05T13:19:14.734Z,34.63
2023-05-05T13:21:41.698Z,35.37
2023-05-05T13:24:23.446Z,35.67
2023-05-05T13:26:55.719Z,36.44
2023-05-05T13:29:23.607Z,36.85
2023-05-05T13:31:52.940Z,37.62
2023-05-05T13:34:19.280Z,38.27
2023-05-05T13:36:46.006Z,38.75
2023-05-05T13:39:15.055Z,39.20
2023-05-05T13:41:44.561Z,39.84
2023-05-05T13:44:13.949Z,40.73
2023-05-05T13:46:44.774Z,40.88
2023-05-05T13:49:11.516Z,41.14
2023-05-05T13:51:38.914Z,41.58
2023-05-05T13:54:06.474Z,42.28
2023-05-05T13:56:33.985Z,42.07
2023-05-05T13:59:01.070Z,42.00
2023-05-05T14:01:27.791Z,42.81
2023-05-05T14:03:56.921Z,42.95
2023-05-05T14:06:23.768Z,43.40
2023-05-05T14:08:50.361Z,43.51
2023-05-05T14:11:18.153Z,43.74
2023-05-05T14:13:46.428Z,43.58
2023-05-05T14:16:13.606Z,43.46
2023-05-05T14:18:40.285Z,43.45
2023-05-05T14:21:06.935Z,43.86
2023-05-05T14:23:33.662Z,43.95
2023-05-05T14:26:02.939Z,43.99
2023-05-05T14:28:29.587Z,43.88
2023-05-05T14:30:56.225Z,43.61
2023-05-05T14:33:22.732Z,43.81
2023-05-05T14:35:49.359Z,43.94
2023-05-05T14:38:15.887Z,44.26
2023-05-05T14:40:42.297Z,43.84
2023-05-05T14:43:11.906Z,43.90
2023-05-05T14:45:38.371Z,44.00
2023-05-05T14:48:05.088Z,44.16
2023-05-05T14:50:31.441Z,44.26
2023-05-05T14:52:57.985Z,43.96
2023-05-05T14:55:25.013Z,43.94
2023-05-05T14:57:52.899Z,43.84
2023-05-05T15:00:19.464Z,43.69
2023-05-05T15:02:47.963Z,44.00
2023-05-05T15:05:17.774Z,44.37
2023-05-05T15:07:44.487Z,44.60
2023-05-05T15:10:11.309Z,44.16
2023-05-05T15:12:37.778Z,44.14
2023-05-05T15:15:04.687Z,43.93
2023-05-05T15:17:31.906Z,43.95
2023-05-05T15:19:58.361Z,44.33
2023-05-05T15:22:25.012Z,44.12
2023-05-05T15:24:53.697Z,44.51
2023-05-05T15:27:20.846Z,44.76
2023-05-05T15:29:48.793Z,44.92
2023-05-05T15:32:17.678Z,45.14
2023-05-05T15:34:46.518Z,45.12
2023-05-05T15:37:14.220Z,45.13
2023-05-05T15:39:40.565Z,45.18
2023-05-05T15:42:07.465Z,44.73
2023-05-05T15:44:34.085Z,45.40
2023-05-05T15:47:00.695Z,45.54
2023-05-05T15:49:27.159Z,44.92
2023-05-05T15:51:53.786Z,44.71
2023-05-05T15:54:20.510Z,44.53
2023-05-05T15:56:47.036Z,44.14
2023-05-05T15:59:13.678Z,43.84
2023-05-05T16:01:40.380Z,43.97
2023-05-05T16:04:08.319Z,43.72
2023-05-05T16:06:34.755Z,43.61
2023-05-05T16:09:01.463Z,43.17
2023-05-05T16:11:31.690Z,43.28
2023-05-05T16:13:58.338Z,43.71
2023-05-05T16:16:24.850Z,43.85
2023-05-05T16:18:52.094Z,44.19
2023-05-05T16:21:18.733Z,44.41
2023-05-05T16:23:45.210Z,44.16
2023-05-05T16:26:11.788Z,44.57
2023-05-05T16:28:38.747Z,44.90
2023-05-05T16:31:05.230Z,45.07
2023-05-05T16:33:31.704Z,45.30
2023-05-05T16:35:58.332Z,45.25
2023-05-05T16:38:26.224Z,45.82
2023-05-05T16:40:52.922Z,45.52
2023-05-05T16:43:19.643Z,45.31
2023-05-05T16:45:46.772Z,45.50
2023-05-05T16:48:14.835Z,45.40
2023-05-05T16:50:41.571Z,45.77
2023-05-05T16:53:10.110Z,46.22
2023-05-05T16:55:37.294Z,46.04
2023-05-05T16:58:04.210Z,45.78
2023-05-05T17:00:30.574Z,45.92
2023-05-05T17:02:56.995Z,46.23
2023-05-05T17:05:23.987Z,46.30
2023-05-05T17:07:50.512Z,46.45
2023-05-05T17:10:16.857Z,46.70
2023-05-05T17:12:43.234Z,47.12
2023-05-05T17:15:10.174Z,47.10
2023-05-05T17:17:37.201Z,47.05
2023-05-05T17:20:05.240Z,46.96
2023-05-05T17:22:34.431Z,47.05
2023-05-05T17:25:01.122Z,47.25
2023-05-05T17:27:27.492Z,47.18
2023-05-05T17:29:54.538Z,47.30
2023-05-05T17:32:25.665Z,47.19
2023-05-05T17:34:52.186Z,47.27
2023-05-05T17:37:18.504Z,47.20
2023-05-05T17:39:44.961Z,47.20
2023-05-05T17:42:11.334Z,47.27
2023-05-05T17:44:38.013Z,47.49
2023-05-05T17:47:07.532Z,47.32
2023-05-05T17:49:35.013Z,47.07
2023-05-05T17:52:01.489Z,47.16
2023-05-05T17:54:28.094Z,46.91
2023-05-05T17:56:54.926Z,46.92
2023-05-05T17:59:21.305Z,47.16
2023-05-05T18:01:47.853Z,47.19
2023-05-05T18:04:16.165Z,47.37
2023-05-05T18:06:43.012Z,47.37
2023-05-05T18:09:10.981Z,47.53
2023-05-05T18:11:37.739Z,47.61
2023-05-05T18:14:04.114Z,47.70
2023-05-05T18:16:31.183Z,47.68
2023-05-05T18:18:57.744Z,47.84
2023-05-05T18:21:24.118Z,47.78
2023-05-05T18:23:50.954Z,47.98
2023-05-05T18:26:17.345Z,47.98
2023-05-05T18:28:43.798Z,47.78
2023-05-05T18:31:10.264Z,47.63
2023-05-05T18:33:36.848Z,47.69
2023-05-05T18:36:03.796Z,47.70
2023-05-05T18:38:31.594Z,48.00
2023-05-05T18:40:58.110Z,47.61
2023-05-05T18:43:24.423Z,47.76
2023-05-05T18:45:51.041Z,47.50
2023-05-05T18:48:17.706Z,47.94
2023-05-05T18:50:44.277Z,47.85
2023-05-05T18:53:13.527Z,47.85
2023-05-05T18:55:39.945Z,48.12
2023-05-05T18:58:06.385Z,48.13
2023-05-05T19:00:32.798Z,48.08
2023-05-05T19:02:59.377Z,48.34
2023-05-05T19:05:27.168Z,48.60
2023-05-05T19:07:53.568Z,48.61
2023-05-05T19:10:20.067Z,48.41
2023-05-05T19:12:46.612Z,48.60
2023-05-05T19:15:13.403Z,48.49
2023-05-05T19:17:39.808Z,48.50
2023-05-05T19:20:06.763Z,48.50
2023-05-05T19:22:33.151Z,48.29
2023-05-05T19:24:59.822Z,48.45
2023-05-05T19:27:26.584Z,48.70
2023-05-05T19:29:53.161Z,48.66
2023-05-05T19:32:21.345Z,48.84
2023-05-05T19:34:48.190Z,48.62
2023-05-05T19:37:14.618Z,48.91
2023-05-05T19:39:43.082Z,48.74
2023-05-05T19:42:09.799Z,48.67
2023-05-05T19:44:36.141Z,48.99
2023-05-05T19:47:03.250Z,48.79
2023-05-05T19:49:30.358Z,48.91
2023-05-05T19:52:00.498Z,49.17
2023-05-05T19:54:33.085Z,49.04
2023-05-05T19:57:00.876Z,48.88
2023-05-05T19:59:27.405Z,48.72
2023-05-05T20:01:56.301Z,48.81
2023-05-05T20:04:23.006Z,48.92
2023-05-05T20:06:49.577Z,49.00
2023-05-05T20:09:15.962Z,49.04
2023-05-05T20:11:42.588Z,49.01
2023-05-05T20:14:09.191Z,49.04
2023-05-05T20:16:36.000Z,49.05
2023-05-05T20:19:03.524Z,49.25
2023-05-05T20:21:29.975Z,49.31
2023-05-05T20:23:56.503Z,49.35
2023-05-05T20:26:24.598Z,49.43
2023-05-05T20:28:51.200Z,49.50
2023-05-05T20:31:17.632Z,49.43
2023-05-05T20:33:44.727Z,49.53
2023-05-05T20:36:11.545Z,49.55
2023-05-05T20:38:38.114Z,49.54
2023-05-05T20:41:04.552Z,49.58
2023-05-05T20:43:31.149Z,49.47
2023-05-05T20:45:57.501Z,49.53
2023-05-05T20:48:23.874Z,49.56
2023-05-05T20:50:51.099Z,49.58
2023-05-05T20:53:19.089Z,49.56
2023-05-05T20:55:45.495Z,49.75
2023-05-05T20:58:12.133Z,49.81
2023-05-05T21:00:38.575Z,49.99
2023-05-05T21:03:05.299Z,49.76
2023-05-05T21:05:31.944Z,49.71
2023-05-05T21:08:00.650Z,49.61
2023-05-05T21:10:28.845Z,49.91
2023-05-05T21:12:58.507Z,49.49
2023-05-05T21:15:24.977Z,49.57
2023-05-05T21:17:51.722Z,49.41
2023-05-05T21:20:18.594Z,49.42
2023-05-05T21:22:45.853Z,49.33
2023-05-05T21:25:20.831Z,50.29
2023-05-05T21:27:48.429Z,49.60
2023-05-05T21:30:15.815Z,49.37
2023-05-05T21:32:42.616Z,49.24
2023-05-05T21:35:09.526Z,49.32
2023-05-05T21:37:39.846Z,49.79
2023-05-05T21:40:10.576Z,49.47
2023-05-05T21:42:37.476Z,49.37
2023-05-05T21:45:04.151Z,49.03
2023-05-05T21:47:30.811Z,49.00
2023-05-05T21:49:58.178Z,49.07
2023-05-05T21:52:24.916Z,48.96
2023-05-05T21:54:51.289Z,49.19
2023-05-05T21:57:17.705Z,49.12
2023-05-05T21:59:44.099Z,49.12
2023-05-05T22:02:10.430Z,49.06
2023-05-05T22:04:36.853Z,49.14
2023-05-05T22:07:03.240Z,49.27
2023-05-05T22:09:29.682Z,49.63
2023-05-05T22:11:57.589Z,49.44
2023-05-05T22:14:24.266Z,49.41
2023-05-05T22:16:51.071Z,49.59
2023-05-05T22:19:17.944Z,49.50
2023-05-05T22:21:44.307Z,49.52
2023-05-05T22:24:11.020Z,49.37
2023-05-05T22:26:39.720Z,49.15
2023-05-05T22:29:06.246Z,49.02
2023-05-05T22:31:32.704Z,49.10
2023-05-05T22:33:59.043Z,49.01
2023-05-05T22:36:25.814Z,49.37
2023-05-05T22:38:52.276Z,49.07
2023-05-05T22:41:18.860Z,49.29
2023-05-05T22:43:45.551Z,49.36
2023-05-05T22:46:12.152Z,49.42
2023-05-05T22:48:38.612Z,49.51
2023-05-05T22:51:05.364Z,49.62
2023-05-05T22:53:31.948Z,49.70
2023-05-05T22:55:58.627Z,49.88
2023-05-05T22:58:25.649Z,49.91
2023-05-05T23:00:52.118Z,49.95
2023-05-05T23:03:18.773Z,50.12
2023-05-05T23:05:45.082Z,49.99
2023-05-05T23:08:11.636Z,50.02
2023-05-05T23:10:38.026Z,50.00
2023-05-05T23:13:04.524Z,50.08
2023-05-05T23:15:31.087Z,49.86
2023-05-05T23:17:57.564Z,49.79
2023-05-05T23:20:24.133Z,49.82
2023-05-05T23:22:50.738Z,49.79
2023-05-05T23:25:17.224Z,49.98
2023-05-05T23:27:43.864Z,49.72
2023-05-05T23:30:10.893Z,49.81
2023-05-05T23:32:37.559Z,49.91
2023-05-05T23:35:05.843Z,50.17
2023-05-05T23:37:32.230Z,50.17
2023-05-05T23:39:58.596Z,49.89
2023-05-05T23:42:25.237Z,49.86
2023-05-05T23:44:51.638Z,50.05
2023-05-05T23:47:18.061Z,50.03
2023-05-05T23:49:44.369Z,49.63
2023-05-05T23:52:11.282Z,49.74
2023-05-05T23:54:37.688Z,49.86
2023-05-05T23:57:04.129Z,50.24
2023-05-05T23:59:30.576Z,49.98
